Time;durP1;ratioP1;P1;durP2;ratioP2;P2;SDS_P1;SDS_P2;PMS_P1;PMS_P2;Temp;Humidity;BMP_temperature;BMP_pressure;BME280_temperature;BME280_humidity;BME280_pressure;Samples;Min_cycle;Max_cycle;Signal;HPM_P1;HPM_P2
2023/03/19 00:00:31;;;;;;;;;;;13.50;62.60;;;;;;4982012;28;19925;-90
2023/03/19 00:02:56;;;;;;;;;;;13.40;62.70;;;;;;4999142;28;19922;-89
2023/03/19 00:05:22;;;;;;;;;;;13.50;62.90;;;;;;4998855;28;19922;-89
2023/03/19 00:07:48;;;;;;;;;;;13.40;63.00;;;;;;4997749;28;19952;-89
2023/03/19 00:10:13;;;;;;;;;;;13.40;63.10;;;;;;4998489;28;20000;-90
2023/03/19 00:12:39;;;;;;;;;;;13.50;63.10;;;;;;4991793;28;19925;-90
2023/03/19 00:15:07;;;;;;;;;;;13.40;63.00;;;;;;4999336;28;19914;-90
2023/03/19 00:17:33;;;;;;;;;;;13.30;62.90;;;;;;4996547;28;19925;-90
2023/03/19 00:20:00;;;;;;;;;;;13.30;62.70;;;;;;4996198;28;19920;-89
2023/03/19 00:22:25;;;;;;;;;;;13.30;62.70;;;;;;4995298;28;20545;-91
2023/03/19 00:24:52;;;;;;;;;;;13.30;62.60;;;;;;4998398;28;19924;-89
2023/03/19 00:27:18;;;;;;;;;;;13.30;62.40;;;;;;4998667;28;20006;-90
2023/03/19 00:29:44;;;;;;;;;;;13.20;62.20;;;;;;4996692;28;20501;-89
2023/03/19 00:32:13;;;;;;;;;;;13.20;62.10;;;;;;4998063;28;20388;-89
2023/03/19 00:34:39;;;;;;;;;;;13.10;62.00;;;;;;5000184;28;19913;-89
2023/03/19 00:37:15;;;;;;;;;;;13.00;62.10;;;;;;5000802;28;19910;-88
2023/03/19 00:39:41;;;;;;;;;;;13.00;62.00;;;;;;4998348;28;19917;-88
2023/03/19 00:42:06;;;;;;;;;;;12.90;62.00;;;;;;4997480;28;20246;-88
2023/03/19 00:44:32;;;;;;;;;;;12.90;61.90;;;;;;4998188;28;19967;-90
2023/03/19 00:46:58;;;;;;;;;;;12.80;62.30;;;;;;4999311;28;19910;-89
2023/03/19 00:49:24;;;;;;;;;;;12.80;62.30;;;;;;4998854;28;20390;-89
2023/03/19 00:51:50;;;;;;;;;;;12.80;62.40;;;;;;4999969;28;19937;-89
2023/03/19 00:54:17;;;;;;;;;;;12.80;62.40;;;;;;4999290;28;19914;-90
2023/03/19 00:56:43;;;;;;;;;;;12.80;62.80;;;;;;5000576;28;20379;-89
2023/03/19 00:59:09;;;;;;;;;;;12.70;62.70;;;;;;4997138;28;19915;-88
2023/03/19 01:01:38;;;;;;;;;;;12.70;62.40;;;;;;4999040;28;19914;-89
2023/03/19 01:04:03;;;;;;;;;;;12.70;62.40;;;;;;4998983;28;19921;-89
2023/03/19 01:06:29;;;;;;;;;;;12.70;62.30;;;;;;4999507;28;19921;-89
2023/03/19 01:08:56;;;;;;;;;;;12.70;62.30;;;;;;4998275;28;20392;-89
2023/03/19 01:11:22;;;;;;;;;;;12.60;62.20;;;;;;4999179;28;19949;-90
2023/03/19 01:13:48;;;;;;;;;;;12.60;62.20;;;;;;5000670;28;20018;-90
2023/03/19 01:16:14;;;;;;;;;;;12.50;62.10;;;;;;4999269;28;19981;-88
2023/03/19 01:18:39;;;;;;;;;;;12.50;62.10;;;;;;4999318;28;20352;-90
2023/03/19 01:21:07;;;;;;;;;;;12.50;62.20;;;;;;4995250;28;20645;-89
2023/03/19 01:23:32;;;;;;;;;;;12.50;62.40;;;;;;4994122;28;19921;-90
2023/03/19 01:25:58;;;;;;;;;;;12.40;62.20;;;;;;4998907;28;19910;-90
2023/03/19 01:28:24;;;;;;;;;;;12.40;62.00;;;;;;4997655;28;20280;-89
2023/03/19 01:30:49;;;;;;;;;;;12.40;61.90;;;;;;4999150;28;19963;-90
2023/03/19 01:33:18;;;;;;;;;;;12.30;62.00;;;;;;4997343;28;20733;-88
2023/03/19 01:35:46;;;;;;;;;;;12.30;61.90;;;;;;4997714;28;20132;-88
2023/03/19 01:38:12;;;;;;;;;;;12.30;61.80;;;;;;4995328;28;19992;-89
2023/03/19 01:40:42;;;;;;;;;;;12.20;61.70;;;;;;5012239;28;20009;-90
2023/03/19 01:43:13;;;;;;;;;;;12.20;61.80;;;;;;4997209;28;19917;-90
2023/03/19 01:45:40;;;;;;;;;;;12.20;62.00;;;;;;5001222;28;20005;-90
2023/03/19 01:48:07;;;;;;;;;;;12.20;62.20;;;;;;4998638;28;19925;-89
2023/03/19 01:50:36;;;;;;;;;;;12.20;62.30;;;;;;4998344;28;20004;-89
2023/03/19 01:53:02;;;;;;;;;;;12.20;62.50;;;;;;4998141;28;19959;-90
2023/03/19 01:55:28;;;;;;;;;;;12.30;62.70;;;;;;5015385;28;19949;-90
2023/03/19 01:57:54;;;;;;;;;;;12.30;62.80;;;;;;5000255;28;19918;-88
2023/03/19 02:00:20;;;;;;;;;;;12.40;62.90;;;;;;5000369;28;19914;-90
2023/03/19 02:02:47;;;;;;;;;;;12.40;63.10;;;;;;5003478;28;19917;-89
2023/03/19 02:05:14;;;;;;;;;;;12.50;63.20;;;;;;5003793;28;19922;-88
2023/03/19 02:07:41;;;;;;;;;;;12.50;63.30;;;;;;5000409;28;19913;-91
2023/03/19 02:10:08;;;;;;;;;;;12.50;63.10;;;;;;5003754;28;19924;-90
2023/03/19 02:12:34;;;;;;;;;;;12.50;63.10;;;;;;5002457;28;20400;-90
2023/03/19 02:14:59;;;;;;;;;;;12.50;63.00;;;;;;5003434;28;19913;-90
2023/03/19 02:17:26;;;;;;;;;;;12.50;63.00;;;;;;5002494;28;19949;-90
2023/03/19 02:20:11;;;;;;;;;;;12.50;63.00;;;;;;4999853;28;19941;-88
2023/03/19 02:22:40;;;;;;;;;;;12.50;63.00;;;;;;4998248;28;20376;-90
2023/03/19 02:25:20;;;;;;;;;;;12.50;63.10;;;;;;5002793;28;19922;-89
2023/03/19 02:27:46;;;;;;;;;;;12.60;63.20;;;;;;5001538;28;20058;-89
2023/03/19 02:30:41;;;;;;;;;;;12.60;63.50;;;;;;5014551;28;19913;-91
2023/03/19 02:33:12;;;;;;;;;;;12.70;63.50;;;;;;4984904;28;20415;-89
2023/03/19 02:35:39;;;;;;;;;;;12.70;63.60;;;;;;5001318;28;19914;-90
2023/03/19 02:38:05;;;;;;;;;;;12.80;63.60;;;;;;4999406;28;19929;-90
2023/03/19 02:40:35;;;;;;;;;;;12.80;63.60;;;;;;4999363;28;19916;-89
2023/03/19 02:43:00;;;;;;;;;;;12.90;63.60;;;;;;4999990;28;19968;-90
2023/03/19 02:45:27;;;;;;;;;;;12.90;63.60;;;;;;4999113;28;19925;-89
2023/03/19 02:47:53;;;;;;;;;;;13.00;63.60;;;;;;5000507;28;19924;-88
2023/03/19 02:50:18;;;;;;;;;;;13.00;63.60;;;;;;4999061;28;20000;-89
2023/03/19 02:52:44;;;;;;;;;;;13.10;63.70;;;;;;5000474;28;19922;-90
2023/03/19 02:55:10;;;;;;;;;;;13.10;63.70;;;;;;4999856;28;19957;-89
2023/03/19 02:57:36;;;;;;;;;;;13.10;63.60;;;;;;4997170;28;20421;-90
2023/03/19 03:00:03;;;;;;;;;;;13.20;63.70;;;;;;5000338;28;19914;-90
2023/03/19 03:02:28;;;;;;;;;;;13.20;63.60;;;;;;4999180;28;19926;-90
2023/03/19 03:04:54;;;;;;;;;;;13.20;63.60;;;;;;5015729;28;20018;-88
2023/03/19 03:07:20;;;;;;;;;;;13.20;63.60;;;;;;5011831;28;19944;-88
2023/03/19 03:09:46;;;;;;;;;;;13.10;63.40;;;;;;5000932;28;19914;-90
2023/03/19 03:12:12;;;;;;;;;;;13.10;63.40;;;;;;4999699;28;19920;-88
2023/03/19 03:14:40;;;;;;;;;;;13.10;63.30;;;;;;4999932;28;19964;-90
2023/03/19 03:17:07;;;;;;;;;;;13.20;63.40;;;;;;5000843;28;19913;-89
2023/03/19 03:19:32;;;;;;;;;;;13.20;63.50;;;;;;4999637;28;20024;-90
2023/03/19 03:21:59;;;;;;;;;;;13.20;63.50;;;;;;4998045;28;19981;-90
2023/03/19 03:24:25;;;;;;;;;;;13.20;63.60;;;;;;5016365;28;19925;-89
2023/03/19 03:26:51;;;;;;;;;;;13.20;63.50;;;;;;5000812;28;19909;-90
2023/03/19 03:29:17;;;;;;;;;;;13.30;63.40;;;;;;4999244;28;20336;-89
2023/03/19 03:31:43;;;;;;;;;;;13.20;63.40;;;;;;4999136;28;19937;-90
2023/03/19 03:34:09;;;;;;;;;;;13.30;63.50;;;;;;5001751;28;19926;-90
2023/03/19 03:36:34;;;;;;;;;;;13.30;63.60;;;;;;4997969;28;19910;-90
2023/03/19 03:39:00;;;;;;;;;;;13.30;63.70;;;;;;5001450;28;20440;-88
2023/03/19 03:41:26;;;;;;;;;;;13.40;63.70;;;;;;5000276;28;19935;-89
2023/03/19 03:43:51;;;;;;;;;;;13.40;63.70;;;;;;4999355;28;20357;-89
2023/03/19 03:46:17;;;;;;;;;;;13.50;63.80;;;;;;5001793;28;19913;-89
2023/03/19 03:48:43;;;;;;;;;;;13.50;63.90;;;;;;4999012;28;19941;-89
2023/03/19 03:51:08;;;;;;;;;;;13.50;63.80;;;;;;4999989;28;19953;-88
2023/03/19 03:53:35;;;;;;;;;;;13.60;63.80;;;;;;5000425;28;19925;-88
2023/03/19 03:56:01;;;;;;;;;;;13.70;63.90;;;;;;4999126;28;20388;-88
2023/03/19 03:58:27;;;;;;;;;;;13.70;63.80;;;;;;5000004;28;19964;-88
2023/03/19 04:00:53;;;;;;;;;;;13.70;63.80;;;;;;5000458;28;20004;-89
2023/03/19 04:03:21;;;;;;;;;;;13.80;63.80;;;;;;4999688;28;20541;-88
2023/03/19 04:05:46;;;;;;;;;;;13.80;63.70;;;;;;4998890;28;19928;-88
2023/03/19 04:08:12;;;;;;;;;;;13.80;63.60;;;;;;5000120;28;19925;-88
2023/03/19 04:10:38;;;;;;;;;;;13.80;63.50;;;;;;4999720;28;20380;-90
2023/03/19 04:13:04;;;;;;;;;;;13.70;63.30;;;;;;4999151;28;19968;-89
2023/03/19 04:15:30;;;;;;;;;;;13.70;63.20;;;;;;5000920;28;19913;-88
2023/03/19 04:17:55;;;;;;;;;;;13.60;63.20;;;;;;4997260;28;20337;-90
2023/03/19 04:20:22;;;;;;;;;;;13.50;63.20;;;;;;5000603;28;20347;-88
2023/03/19 04:22:48;;;;;;;;;;;13.50;63.20;;;;;;4997601;28;20343;-89
2023/03/19 04:25:14;;;;;;;;;;;13.40;63.10;;;;;;4998755;28;19929;-88
2023/03/19 04:27:40;;;;;;;;;;;13.30;63.00;;;;;;4997938;28;19925;-89
2023/03/19 04:30:05;;;;;;;;;;;13.30;62.80;;;;;;4998582;28;19910;-89
2023/03/19 04:32:32;;;;;;;;;;;13.20;62.70;;;;;;4999413;28;19929;-88
2023/03/19 04:34:58;;;;;;;;;;;13.10;62.60;;;;;;4996302;28;19910;-89
2023/03/19 04:37:24;;;;;;;;;;;13.00;62.60;;;;;;4998886;28;20289;-90
2023/03/19 04:39:50;;;;;;;;;;;13.00;62.60;;;;;;5001063;28;19913;-90
2023/03/19 04:42:16;;;;;;;;;;;13.00;62.70;;;;;;5015634;28;19933;-89
2023/03/19 04:44:41;;;;;;;;;;;13.00;62.90;;;;;;5017288;28;19988;-89
2023/03/19 04:47:08;;;;;;;;;;;13.00;63.00;;;;;;5000576;28;19916;-90
2023/03/19 04:49:35;;;;;;;;;;;12.90;63.00;;;;;;5013526;28;19910;-90
2023/03/19 04:52:01;;;;;;;;;;;12.90;63.00;;;;;;4999669;28;20360;-90
2023/03/19 04:54:27;;;;;;;;;;;12.90;62.90;;;;;;4998817;28;19918;-90
2023/03/19 04:56:53;;;;;;;;;;;12.80;62.90;;;;;;4998950;28;19909;-90
2023/03/19 04:59:19;;;;;;;;;;;12.80;62.80;;;;;;4999173;28;19925;-91
2023/03/19 05:01:45;;;;;;;;;;;12.70;62.90;;;;;;4999447;28;20004;-90
2023/03/19 05:04:11;;;;;;;;;;;12.70;62.80;;;;;;4999370;28;20024;-90
2023/03/19 05:06:37;;;;;;;;;;;12.70;62.80;;;;;;4999508;28;19913;-90
2023/03/19 05:09:03;;;;;;;;;;;12.70;62.70;;;;;;4999996;28;19918;-91
2023/03/19 05:11:29;;;;;;;;;;;12.60;62.70;;;;;;5000089;28;19913;-89
2023/03/19 05:13:58;;;;;;;;;;;12.60;62.60;;;;;;4999309;28;19917;-89
2023/03/19 05:16:26;;;;;;;;;;;12.60;62.50;;;;;;4999419;28;19917;-89
2023/03/19 05:18:52;;;;;;;;;;;12.50;62.60;;;;;;4997450;28;19980;-90
2023/03/19 05:21:17;;;;;;;;;;;12.40;62.40;;;;;;5014924;28;19910;-90
2023/03/19 05:23:51;;;;;;;;;;;12.40;62.20;;;;;;4998644;28;19925;-90
2023/03/19 05:26:17;;;;;;;;;;;12.30;62.10;;;;;;5000150;28;19926;-90
2023/03/19 05:28:43;;;;;;;;;;;12.30;62.10;;;;;;4999418;28;19959;-89
2023/03/19 05:31:08;;;;;;;;;;;12.30;62.10;;;;;;5003352;28;19953;-91
2023/03/19 05:33:34;;;;;;;;;;;12.20;62.20;;;;;;5003582;28;19984;-89
2023/03/19 05:35:59;;;;;;;;;;;12.20;62.60;;;;;;5014652;28;19944;-89
2023/03/19 05:38:26;;;;;;;;;;;12.20;62.60;;;;;;5001692;28;19921;-91
2023/03/19 05:40:51;;;;;;;;;;;12.20;62.80;;;;;;5001996;28;19926;-90
2023/03/19 05:43:17;;;;;;;;;;;12.20;62.90;;;;;;5001556;28;20479;-89
2023/03/19 05:45:48;;;;;;;;;;;12.20;62.80;;;;;;5002288;28;19961;-89
2023/03/19 05:48:14;;;;;;;;;;;12.10;62.80;;;;;;5003932;28;20353;-90
2023/03/19 05:50:41;;;;;;;;;;;12.10;62.80;;;;;;5004697;28;20354;-90
2023/03/19 05:53:06;;;;;;;;;;;12.10;62.70;;;;;;5002794;28;19964;-90
2023/03/19 05:55:32;;;;;;;;;;;12.10;62.70;;;;;;5002860;28;19942;-90
2023/03/19 05:57:58;;;;;;;;;;;12.10;62.60;;;;;;5001198;28;19972;-90
2023/03/19 06:00:23;;;;;;;;;;;12.10;62.60;;;;;;5003020;28;19916;-89
2023/03/19 06:02:50;;;;;;;;;;;12.10;63.00;;;;;;5003524;28;19918;-89
2023/03/19 06:05:16;;;;;;;;;;;12.00;63.20;;;;;;5001697;28;20388;-88
2023/03/19 06:07:42;;;;;;;;;;;12.10;63.20;;;;;;5002067;28;20025;-89
2023/03/19 06:10:08;;;;;;;;;;;12.10;63.20;;;;;;5001635;28;20291;-89
2023/03/19 06:12:33;;;;;;;;;;;12.20;63.40;;;;;;4999977;28;20475;-89
2023/03/19 06:15:00;;;;;;;;;;;12.20;64.00;;;;;;5018250;28;19963;-90
2023/03/19 06:17:26;;;;;;;;;;;12.40;64.90;;;;;;5001658;28;19922;-90
2023/03/19 06:19:51;;;;;;;;;;;12.70;65.90;;;;;;4999238;28;19926;-90
2023/03/19 06:22:17;;;;;;;;;;;13.10;67.00;;;;;;5001813;28;19918;-90
2023/03/19 06:24:46;;;;;;;;;;;13.50;67.50;;;;;;4999537;28;19921;-89
2023/03/19 06:27:11;;;;;;;;;;;13.90;68.20;;;;;;5001433;28;19914;-88
2023/03/19 06:29:39;;;;;;;;;;;14.40;68.80;;;;;;5001385;28;19917;-89
2023/03/19 06:32:05;;;;;;;;;;;14.80;69.30;;;;;;5000918;28;20432;-90
2023/03/19 06:34:30;;;;;;;;;;;15.30;69.40;;;;;;5016657;28;20004;-89
2023/03/19 06:36:56;;;;;;;;;;;15.70;68.60;;;;;;5001743;28;20012;-90
2023/03/19 06:39:26;;;;;;;;;;;16.00;67.70;;;;;;4998866;28;20357;-89
2023/03/19 06:41:52;;;;;;;;;;;16.30;67.30;;;;;;5000442;28;19917;-89
2023/03/19 06:44:18;;;;;;;;;;;16.60;68.00;;;;;;4999381;28;19996;-90
2023/03/19 06:46:43;;;;;;;;;;;17.00;68.50;;;;;;5002139;28;20479;-89
2023/03/19 06:49:09;;;;;;;;;;;17.30;68.90;;;;;;5000104;28;19914;-89
2023/03/19 06:51:35;;;;;;;;;;;17.80;70.10;;;;;;4999747;28;19921;-90
2023/03/19 06:54:02;;;;;;;;;;;18.40;70.90;;;;;;5002818;28;19920;-90
2023/03/19 06:56:28;;;;;;;;;;;18.90;70.80;;;;;;5001381;28;20098;-90
2023/03/19 06:58:58;;;;;;;;;;;19.50;71.80;;;;;;5001036;28;19914;-88
2023/03/19 07:01:24;;;;;;;;;;;20.10;71.80;;;;;;4999178;28;20012;-89
2023/03/19 07:03:49;;;;;;;;;;;20.50;69.00;;;;;;4999818;28;20004;-89
2023/03/19 07:06:15;;;;;;;;;;;20.70;67.40;;;;;;5001389;28;19914;-90
2023/03/19 07:08:45;;;;;;;;;;;20.80;66.70;;;;;;5015012;28;19965;-90
2023/03/19 07:11:11;;;;;;;;;;;20.90;66.70;;;;;;5000822;28;19913;-90
2023/03/19 07:13:36;;;;;;;;;;;21.20;69.50;;;;;;5001554;28;20282;-89
2023/03/19 07:16:02;;;;;;;;;;;21.70;71.10;;;;;;4998906;28;19910;-90
2023/03/19 07:18:28;;;;;;;;;;;22.30;71.70;;;;;;5015240;28;20366;-91
2023/03/19 07:20:54;;;;;;;;;;;22.90;69.40;;;;;;4998744;28;19909;-91
2023/03/19 07:23:20;;;;;;;;;;;23.10;67.10;;;;;;5000663;28;19924;-91
2023/03/19 07:25:46;;;;;;;;;;;23.20;65.30;;;;;;4998729;28;19939;-89
2023/03/19 07:28:12;;;;;;;;;;;23.00;63.90;;;;;;5015508;28;19918;-91
2023/03/19 07:30:38;;;;;;;;;;;22.70;63.50;;;;;;5000622;28;19989;-90
2023/03/19 07:33:04;;;;;;;;;;;22.40;63.40;;;;;;4996144;28;19972;-91
2023/03/19 07:35:30;;;;;;;;;;;22.30;63.90;;;;;;4999817;28;19917;-90
2023/03/19 07:37:56;;;;;;;;;;;22.10;64.50;;;;;;5000156;28;19945;-89
2023/03/19 07:40:22;;;;;;;;;;;22.00;65.00;;;;;;5000279;28;19916;-90
2023/03/19 07:42:48;;;;;;;;;;;22.00;65.40;;;;;;5000196;28;19918;-91
2023/03/19 07:45:13;;;;;;;;;;;22.00;65.80;;;;;;5014928;28;19921;-91
2023/03/19 07:47:39;;;;;;;;;;;22.00;66.20;;;;;;5001233;28;19926;-90
2023/03/19 07:50:05;;;;;;;;;;;22.00;66.40;;;;;;4999881;28;19991;-92
2023/03/19 07:52:30;;;;;;;;;;;22.20;66.60;;;;;;4999112;28;19942;-90
2023/03/19 07:54:57;;;;;;;;;;;22.30;67.10;;;;;;5001259;28;19917;-90
2023/03/19 07:57:24;;;;;;;;;;;22.50;68.50;;;;;;4994569;28;20353;-91
2023/03/19 07:59:49;;;;;;;;;;;22.80;67.90;;;;;;4993347;28;20843;-90
2023/03/19 08:02:15;;;;;;;;;;;23.00;67.60;;;;;;4994014;28;19996;-90
2023/03/19 08:04:41;;;;;;;;;;;23.10;67.40;;;;;;4992245;28;19917;-90
2023/03/19 08:07:09;;;;;;;;;;;23.20;67.20;;;;;;4993460;28;19910;-90
2023/03/19 08:09:37;;;;;;;;;;;23.20;66.70;;;;;;4997200;28;19949;-88
2023/03/19 08:12:03;;;;;;;;;;;23.20;66.40;;;;;;4999845;28;19917;-90
2023/03/19 08:14:29;;;;;;;;;;;23.20;66.30;;;;;;4995053;28;19918;-91
2023/03/19 08:16:55;;;;;;;;;;;23.20;66.30;;;;;;4996038;28;19921;-91
2023/03/19 08:19:22;;;;;;;;;;;23.30;66.00;;;;;;4994500;28;19917;-90
2023/03/19 08:21:47;;;;;;;;;;;23.30;66.10;;;;;;4994177;28;19917;-91
2023/03/19 08:24:13;;;;;;;;;;;23.30;66.30;;;;;;4991910;28;19932;-88
2023/03/19 08:26:39;;;;;;;;;;;23.40;66.20;;;;;;4999157;28;19909;-90
2023/03/19 08:29:05;;;;;;;;;;;23.40;65.30;;;;;;4998063;28;19917;-91
2023/03/19 08:31:41;;;;;;;;;;;23.40;65.10;;;;;;4999711;28;20312;-90
2023/03/19 08:34:09;;;;;;;;;;;23.40;64.20;;;;;;4995197;28;19936;-90
2023/03/19 08:36:35;;;;;;;;;;;23.30;64.40;;;;;;4998029;28;20357;-90
2023/03/19 08:39:00;;;;;;;;;;;23.30;64.30;;;;;;5000935;28;19933;-91
2023/03/19 08:41:29;;;;;;;;;;;23.20;64.20;;;;;;4999460;28;20357;-91
2023/03/19 08:43:54;;;;;;;;;;;23.10;63.70;;;;;;4997609;28;19924;-89
2023/03/19 08:46:20;;;;;;;;;;;23.00;64.60;;;;;;4992484;28;21911;-91
2023/03/19 08:48:48;;;;;;;;;;;23.10;66.00;;;;;;5010259;28;19921;-90
2023/03/19 08:51:16;;;;;;;;;;;23.30;66.80;;;;;;4995633;28;19936;-89
2023/03/19 08:53:42;;;;;;;;;;;23.50;66.50;;;;;;4995541;28;19924;-91
2023/03/19 08:56:10;;;;;;;;;;;23.70;66.80;;;;;;4993341;28;19914;-91
2023/03/19 08:58:37;;;;;;;;;;;24.00;66.30;;;;;;4994928;28;19922;-92
2023/03/19 09:01:04;;;;;;;;;;;24.10;65.90;;;;;;4999247;28;20092;-89
2023/03/19 09:03:30;;;;;;;;;;;24.40;66.70;;;;;;4998385;28;19918;-92
2023/03/19 09:06:00;;;;;;;;;;;24.70;66.10;;;;;;4999036;28;20448;-93
2023/03/19 09:08:27;;;;;;;;;;;24.80;64.90;;;;;;4996471;28;19926;-89
2023/03/19 09:10:53;;;;;;;;;;;25.00;65.50;;;;;;4999730;28;19917;-91
2023/03/19 09:13:19;;;;;;;;;;;25.30;66.00;;;;;;4996085;28;19932;-91
2023/03/19 09:15:44;;;;;;;;;;;25.60;64.80;;;;;;5012338;28;19917;-90
2023/03/19 09:18:11;;;;;;;;;;;25.80;64.50;;;;;;4998592;28;19924;-91
2023/03/19 09:20:37;;;;;;;;;;;26.30;65.70;;;;;;4998635;28;19918;-91
2023/03/19 09:23:05;;;;;;;;;;;26.80;65.40;;;;;;4998369;28;19926;-91
2023/03/19 09:25:33;;;;;;;;;;;27.10;63.40;;;;;;5008770;28;19928;-91
2023/03/19 09:27:59;;;;;;;;;;;27.30;62.70;;;;;;4997385;28;19925;-90
2023/03/19 09:30:25;;;;;;;;;;;27.40;61.30;;;;;;4995162;28;20006;-91
2023/03/19 09:32:51;;;;;;;;;;;27.60;63.40;;;;;;4998799;28;19925;-90
2023/03/19 09:35:16;;;;;;;;;;;27.80;60.90;;;;;;4995992;28;20379;-91
2023/03/19 09:37:42;;;;;;;;;;;27.80;60.50;;;;;;4996922;28;20056;-92
2023/03/19 09:40:14;;;;;;;;;;;28.00;59.90;;;;;;4995067;28;19972;-90
2023/03/19 09:42:59;;;;;;;;;;;28.30;59.40;;;;;;4995064;28;20355;-90
2023/03/19 09:45:28;;;;;;;;;;;28.20;55.30;;;;;;4995808;28;19937;-91
2023/03/19 09:47:57;;;;;;;;;;;28.00;56.40;;;;;;5011543;28;20064;-88
2023/03/19 09:50:24;;;;;;;;;;;27.80;55.90;;;;;;4994672;28;19933;-91
2023/03/19 09:52:53;;;;;;;;;;;27.70;56.20;;;;;;4998071;28;19917;-90
2023/03/19 09:55:18;;;;;;;;;;;27.50;55.20;;;;;;5008025;28;20006;-91
2023/03/19 09:57:48;;;;;;;;;;;27.40;54.80;;;;;;4994825;28;20547;-91
2023/03/19 10:00:19;;;;;;;;;;;27.30;54.60;;;;;;4993684;28;19961;-91
2023/03/19 10:02:44;;;;;;;;;;;27.10;55.00;;;;;;4999613;28;19917;-91
2023/03/19 10:05:25;;;;;;;;;;;27.10;52.80;;;;;;4996957;28;20314;-90
2023/03/19 10:07:59;;;;;;;;;;;27.00;52.90;;;;;;4996359;28;20561;-91
2023/03/19 10:10:24;;;;;;;;;;;26.90;53.00;;;;;;4997447;28;19926;-92
2023/03/19 10:13:01;;;;;;;;;;;27.10;53.20;;;;;;4996810;28;19933;-92
2023/03/19 10:15:31;;;;;;;;;;;27.20;55.00;;;;;;4997889;28;19937;-92
2023/03/19 10:18:08;;;;;;;;;;;27.30;52.70;;;;;;4997829;28;20012;-91
2023/03/19 10:20:43;;;;;;;;;;;27.30;54.50;;;;;;4996229;28;19918;-92
2023/03/19 10:23:27;;;;;;;;;;;27.40;54.60;;;;;;4990640;28;19911;-91
2023/03/19 10:25:54;;;;;;;;;;;27.80;55.60;;;;;;5007920;28;19968;-89
2023/03/19 10:28:20;;;;;;;;;;;28.30;56.20;;;;;;5001578;28;19918;-91
2023/03/19 10:30:51;;;;;;;;;;;28.80;56.70;;;;;;5000999;28;20273;-90
2023/03/19 10:33:22;;;;;;;;;;;29.40;55.80;;;;;;4996409;28;20382;-90
2023/03/19 10:35:50;;;;;;;;;;;30.00;52.00;;;;;;5001068;28;20020;-91
2023/03/19 10:38:23;;;;;;;;;;;30.30;50.30;;;;;;4999185;28;19913;-92
2023/03/19 10:41:07;;;;;;;;;;;30.60;49.80;;;;;;5000172;28;20368;-91
2023/03/19 10:43:33;;;;;;;;;;;31.00;47.70;;;;;;5011327;28;20694;-90
2023/03/19 10:45:59;;;;;;;;;;;31.40;47.50;;;;;;5000288;28;19933;-90
2023/03/19 10:48:25;;;;;;;;;;;31.80;43.70;;;;;;5003017;28;19918;-92
2023/03/19 10:50:52;;;;;;;;;;;31.80;40.60;;;;;;4993252;28;20134;-90
2023/03/19 10:53:18;;;;;;;;;;;31.50;40.60;;;;;;4997642;28;19961;-89
2023/03/19 10:59:42;;;;;;;;;;;30.90;40.00;;;;;;4950278;29;19938;-92
2023/03/19 11:02:18;;;;;;;;;;;30.50;41.90;;;;;;4948001;28;19926;-93
2023/03/19 11:04:44;;;;;;;;;;;30.10;43.10;;;;;;4973145;28;19918;-91
2023/03/19 11:07:11;;;;;;;;;;;29.80;43.30;;;;;;4974154;28;20331;-91
2023/03/19 11:09:38;;;;;;;;;;;29.70;44.40;;;;;;4990477;28;19925;-90
2023/03/19 11:12:23;;;;;;;;;;;29.70;43.50;;;;;;4989655;28;20369;-90
2023/03/19 11:14:51;;;;;;;;;;;29.80;43.30;;;;;;4998440;28;19918;-90
2023/03/19 11:17:21;;;;;;;;;;;29.80;40.80;;;;;;4992072;28;19922;-92
2023/03/19 11:19:56;;;;;;;;;;;29.50;42.10;;;;;;4990615;28;19922;-91
2023/03/19 11:22:32;;;;;;;;;;;29.30;41.30;;;;;;5007797;28;20281;-91
2023/03/19 11:25:12;;;;;;;;;;;28.90;42.10;;;;;;4990219;28;19936;-88
2023/03/19 11:27:39;;;;;;;;;;;28.70;41.20;;;;;;4990188;28;19921;-91
2023/03/19 11:30:16;;;;;;;;;;;28.50;41.50;;;;;;4990142;28;19925;-91
2023/03/19 11:32:51;;;;;;;;;;;28.50;41.70;;;;;;4990345;28;20005;-92
2023/03/19 11:35:24;;;;;;;;;;;28.50;41.30;;;;;;4989634;28;20009;-91
2023/03/19 11:38:00;;;;;;;;;;;28.40;41.10;;;;;;4991658;28;19918;-90
2023/03/19 11:40:30;;;;;;;;;;;28.40;41.20;;;;;;4989976;28;19918;-88
2023/03/19 11:43:05;;;;;;;;;;;28.30;41.90;;;;;;4990352;28;20328;-92
2023/03/19 11:45:36;;;;;;;;;;;28.20;41.60;;;;;;4988918;28;20008;-90
2023/03/19 11:48:18;;;;;;;;;;;28.00;41.30;;;;;;4989284;28;20457;-89
2023/03/19 11:50:54;;;;;;;;;;;27.80;41.20;;;;;;4991766;28;19910;-89
2023/03/19 11:53:26;;;;;;;;;;;27.50;41.10;;;;;;4989965;28;20039;-91
2023/03/19 11:56:01;;;;;;;;;;;27.30;41.50;;;;;;4991113;28;19917;-89
2023/03/19 11:58:30;;;;;;;;;;;27.30;41.20;;;;;;4990980;28;19918;-89
2023/03/19 12:00:56;;;;;;;;;;;27.20;41.10;;;;;;4991572;28;19914;-89
2023/03/19 12:03:40;;;;;;;;;;;27.10;40.40;;;;;;4988739;28;20388;-89
2023/03/19 12:06:18;;;;;;;;;;;27.00;40.90;;;;;;4989578;28;20415;-91
2023/03/19 12:08:43;;;;;;;;;;;27.00;41.00;;;;;;4990997;28;20383;-90
2023/03/19 12:11:09;;;;;;;;;;;27.30;41.40;;;;;;4990517;28;19910;-90
2023/03/19 12:13:53;;;;;;;;;;;27.50;40.60;;;;;;4992611;28;19910;-91
2023/03/19 12:16:41;;;;;;;;;;;27.60;40.60;;;;;;4990423;28;19992;-91
2023/03/19 12:19:19;;;;;;;;;;;27.60;40.20;;;;;;4990841;28;19914;-90
2023/03/19 12:21:55;;;;;;;;;;;27.40;41.00;;;;;;4990483;28;19922;-91
2023/03/19 12:24:22;;;;;;;;;;;27.30;41.30;;;;;;4991198;28;19964;-89
2023/03/19 12:26:58;;;;;;;;;;;27.20;41.50;;;;;;4989988;28;19921;-90
2023/03/19 12:29:35;;;;;;;;;;;27.10;41.40;;;;;;4990266;28;19910;-93
2023/03/19 12:32:09;;;;;;;;;;;26.90;41.80;;;;;;4986063;28;19922;-91
2023/03/19 12:34:48;;;;;;;;;;;26.80;41.70;;;;;;4991963;28;19914;-92
2023/03/19 12:37:16;;;;;;;;;;;26.70;41.00;;;;;;4986984;28;19997;-89
2023/03/19 12:39:48;;;;;;;;;;;26.50;41.30;;;;;;4970227;28;19914;-90
2023/03/19 12:42:19;;;;;;;;;;;26.30;41.30;;;;;;5000576;28;19918;-90
2023/03/19 12:44:46;;;;;;;;;;;26.20;41.00;;;;;;4987656;28;19936;-89
2023/03/19 12:47:15;;;;;;;;;;;26.10;41.40;;;;;;4984682;28;19918;-91
2023/03/19 12:49:50;;;;;;;;;;;26.00;41.20;;;;;;4988929;28;19913;-90
2023/03/19 12:52:22;;;;;;;;;;;25.80;40.70;;;;;;4979281;28;19922;-90
2023/03/19 12:54:54;;;;;;;;;;;25.70;40.60;;;;;;4988184;28;20005;-93
2023/03/19 12:57:24;;;;;;;;;;;25.50;41.10;;;;;;4987641;28;19925;-91
2023/03/19 13:00:16;;;;;;;;;;;25.30;40.90;;;;;;4989757;28;19957;-90
2023/03/19 13:02:46;;;;;;;;;;;25.30;41.30;;;;;;4969808;28;20300;-91
2023/03/19 13:05:21;;;;;;;;;;;25.20;42.10;;;;;;4998323;28;19952;-93
2023/03/19 13:08:10;;;;;;;;;;;25.00;42.70;;;;;;4999479;28;19929;-93
2023/03/19 13:10:36;;;;;;;;;;;24.90;42.10;;;;;;4992792;28;19960;-92
2023/03/19 13:13:12;;;;;;;;;;;25.00;42.00;;;;;;5000678;28;19917;-91
2023/03/19 13:15:40;;;;;;;;;;;25.10;42.20;;;;;;4985670;28;19925;-90
2023/03/19 13:18:09;;;;;;;;;;;25.20;41.10;;;;;;4992285;28;20005;-92
2023/03/19 13:20:50;;;;;;;;;;;25.20;40.10;;;;;;4990825;28;20021;-91
2023/03/19 13:23:24;;;;;;;;;;;25.20;40.20;;;;;;4987627;28;19918;-91
2023/03/19 13:25:51;;;;;;;;;;;25.50;40.00;;;;;;5007669;28;20016;-91
2023/03/19 13:28:34;;;;;;;;;;;26.40;40.20;;;;;;4995698;28;19928;-90
2023/03/19 13:31:16;;;;;;;;;;;27.10;39.50;;;;;;4989329;28;19917;-90
2023/03/19 13:33:50;;;;;;;;;;;27.20;39.10;;;;;;4988167;28;20011;-93
2023/03/19 13:36:16;;;;;;;;;;;27.20;39.20;;;;;;4977694;28;19914;-90
2023/03/19 13:38:47;;;;;;;;;;;27.00;39.10;;;;;;5001596;28;20383;-89
2023/03/19 13:41:31;;;;;;;;;;;26.90;39.20;;;;;;4987664;28;20016;-89
2023/03/19 13:43:58;;;;;;;;;;;26.90;38.30;;;;;;4984465;28;19925;-91
2023/03/19 13:46:35;;;;;;;;;;;26.70;38.40;;;;;;4985676;28;20019;-88
2023/03/19 13:49:27;;;;;;;;;;;26.60;38.70;;;;;;4990557;28;19921;-91
2023/03/19 13:51:58;;;;;;;;;;;26.50;39.10;;;;;;4987042;28;19922;-93
2023/03/19 13:54:33;;;;;;;;;;;26.50;38.80;;;;;;4986132;28;19941;-91
2023/03/19 13:57:19;;;;;;;;;;;26.30;39.00;;;;;;4993817;28;19913;-90
2023/03/19 13:59:48;;;;;;;;;;;26.30;39.20;;;;;;4991810;28;19922;-89
2023/03/19 14:02:20;;;;;;;;;;;26.30;39.40;;;;;;4996351;28;19914;-90
2023/03/19 14:05:10;;;;;;;;;;;26.20;39.30;;;;;;4988454;28;19940;-91
2023/03/19 14:07:38;;;;;;;;;;;26.20;39.30;;;;;;5010391;28;19925;-89
2023/03/19 14:13:15;;;;;;;;;;;26.00;39.30;;;;;;4954184;28;20030;-92
2023/03/19 14:15:46;;;;;;;;;;;25.80;38.90;;;;;;4985674;28;20355;-92
2023/03/19 14:18:15;;;;;;;;;;;25.70;39.80;;;;;;4994080;28;19937;-92
2023/03/19 14:20:45;;;;;;;;;;;25.60;40.00;;;;;;4985875;28;19918;-91
2023/03/19 14:23:19;;;;;;;;;;;25.50;40.00;;;;;;5001801;28;19920;-89
2023/03/19 14:25:57;;;;;;;;;;;25.50;40.10;;;;;;4987141;28;20392;-90
2023/03/19 14:28:31;;;;;;;;;;;25.30;39.90;;;;;;4991912;28;20500;-92
2023/03/19 14:30:57;;;;;;;;;;;25.20;40.30;;;;;;4991247;28;19926;-92